Terminal Aerodrome Forecast
Issued by NWS

Current Version | Previous Version | Graphics & Text | Print | Product List | Glossary On
Versions: 1 2 3 4 5 6 7 8 9 10 11 12 13 14 15 16 17 18 19 20 21 22 23 24 25 26 27 28 29 30
000
FTUS41 KILN 222100 AAA
TAFLUK
TAF AMD
KLUK 222116Z 2221/2318 27007KT P6SM VCSH BKN035
     FM230000 31003KT P6SM BKN250
     FM230600 00000KT 3SM BR FEW060 BKN250
     FM230800 00000KT 1SM BR SCT060 BKN250
      TEMPO 2309/2312 1/4SM FG VV001
     FM231400 VRB02KT 4SM BR SCT050
     FM231500 06004KT P6SM SCT050=

USA.gov is the U.S. government's official web portal to all federal, state and local government web resources and services.